Time;durP1;ratioP1;P1;durP2;ratioP2;P2;SDS_P1;SDS_P2;PMS_P1;PMS_P2;Temp;Humidity;BMP_temperature;BMP_pressure;BME280_temperature;BME280_humidity;BME280_pressure;Samples;Min_cycle;Max_cycle;Signal;HPM_P1;HPM_P2
2022/05/30 00:02:04;;;;;;;1.10;1.00;;;;;;;19.71;42.59;92725.06;5005740;28;20076;-91
2022/05/30 00:04:29;;;;;;;1.23;1.05;;;;;;;19.70;42.48;92737.28;4995627;28;20133;-91
2022/05/30 00:06:55;;;;;;;0.80;0.80;;;;;;;19.72;42.66;92736.75;5010774;28;20048;-92
2022/05/30 00:09:20;;;;;;;0.70;0.70;;;;;;;19.72;42.94;92739.50;4978518;28;20030;-92
2022/05/30 00:11:48;;;;;;;0.93;0.82;;;;;;;19.69;42.89;92738.59;4972338;28;20038;-92
2022/05/30 00:14:13;;;;;;;0.68;0.68;;;;;;;19.72;42.48;92743.00;4990812;28;20030;-92
2022/05/30 00:16:39;;;;;;;1.38;0.98;;;;;;;19.69;42.66;92741.34;4978429;28;20044;-92
2022/05/30 00:19:04;;;;;;;1.30;0.90;;;;;;;19.70;42.80;92733.84;4978320;28;20049;-91
2022/05/30 00:21:30;;;;;;;0.93;0.70;;;;;;;19.70;42.55;92731.81;4979160;28;20034;-92
2022/05/30 00:23:55;;;;;;;1.48;0.90;;;;;;;19.70;42.76;92731.09;4986971;28;20034;-92
2022/05/30 00:26:23;;;;;;;0.80;0.80;;;;;;;19.70;42.92;92731.09;4974823;28;20064;-92
2022/05/30 00:28:49;;;;;;;1.40;1.00;;;;;;;19.69;42.76;92738.59;4994796;28;20156;-91
2022/05/30 00:31:15;;;;;;;0.90;0.77;;;;;;;19.69;42.89;92738.59;4978188;28;20109;-92
2022/05/30 00:33:42;;;;;;;1.23;1.13;;;;;;;19.69;42.84;92735.84;4978591;28;20038;-92
2022/05/30 00:36:07;;;;;;;1.23;1.08;;;;;;;19.70;42.98;92737.28;5002005;28;20050;-92
2022/05/30 00:38:33;;;;;;;0.90;0.90;;;;;;;19.69;42.77;92737.84;4977031;28;20049;-92
2022/05/30 00:40:58;;;;;;;0.80;0.68;;;;;;;19.69;42.48;92744.06;4994627;28;20029;-92
2022/05/30 00:43:29;;;;;;;1.10;0.95;;;;;;;19.69;42.63;92729.63;4978461;28;20029;-91
2022/05/30 00:45:56;;;;;;;1.48;1.10;;;;;;;19.69;42.77;92735.84;4995130;28;20496;-92
2022/05/30 00:48:24;;;;;;;1.50;1.10;;;;;;;19.68;42.63;92733.66;4968858;28;20042;-92
2022/05/30 00:50:51;;;;;;;0.88;0.75;;;;;;;19.70;42.69;92728.38;4994926;28;20037;-91
2022/05/30 00:53:16;;;;;;;2.42;1.10;;;;;;;19.67;43.00;92732.91;4993866;28;20473;-92
2022/05/30 00:55:43;;;;;;;0.98;0.50;;;;;;;19.68;42.69;92739.88;4992220;28;20049;-91
2022/05/30 00:58:10;;;;;;;0.90;0.70;;;;;;;19.68;42.64;92728.16;4970501;28;20038;-92
2022/05/30 01:00:35;;;;;;;0.95;0.80;;;;;;;19.68;42.33;92725.41;4967047;28;20188;-92
2022/05/30 01:08:29;;;;;;;1.00;0.90;;;;;;;19.66;42.77;92728.69;4998786;28;20064;-92
2022/05/30 01:10:55;;;;;;;1.05;0.90;;;;;;;19.68;42.84;92717.19;4993762;28;20044;-92
2022/05/30 01:13:20;;;;;;;1.55;1.10;;;;;;;19.66;42.78;92727.97;4961206;28;20038;-92
2022/05/30 01:15:46;;;;;;;1.40;1.10;;;;;;;19.67;42.67;92710.25;4970359;28;20037;-91
2022/05/30 01:18:19;;;;;;;2.10;1.52;;;;;;;19.65;42.78;92719.00;4987858;28;20041;-92
2022/05/30 01:21:23;;;;;;;1.40;1.20;;;;;;;19.66;42.83;92709.50;4978587;28;20037;-92
2022/05/30 01:24:14;;;;;;;1.10;1.05;;;;;;;19.67;42.77;92704.75;5006529;28;20050;-92
2022/05/30 01:27:07;;;;;;;1.60;1.10;;;;;;;19.67;42.88;92707.50;5027230;28;20637;-92
2022/05/30 01:29:36;;;;;;;1.95;1.33;;;;;;;19.64;42.73;92706.56;5009439;28;20041;-91
2022/05/30 01:32:02;;;;;;;3.00;1.38;;;;;;;19.63;42.90;92705.09;4977630;28;20433;-90
2022/05/30 01:34:27;;;;;;;1.17;1.05;;;;;;;19.64;42.86;92711.31;4977587;28;20035;-92
2022/05/30 01:36:53;;;;;;;1.90;1.30;;;;;;;19.64;42.88;92703.81;4986772;28;20026;-92
2022/05/30 01:39:18;;;;;;;1.50;1.30;;;;;;;19.63;42.66;92705.09;4976503;28;20040;-92
2022/05/30 01:41:44;;;;;;;1.48;1.20;;;;;;;19.63;43.17;92705.09;4977727;28;20269;-92
2022/05/30 01:44:09;;;;;;;1.65;1.25;;;;;;;19.66;42.68;92708.75;4976439;28;20049;-92
2022/05/30 01:46:35;;;;;;;2.17;1.30;;;;;;;19.61;42.72;92707.63;4993238;28;20042;-92
2022/05/30 01:49:00;;;;;;;1.40;0.98;;;;;;;19.63;42.86;92699.59;4971034;28;20029;-92
2022/05/30 01:51:26;;;;;;;2.10;1.10;;;;;;;19.62;42.68;92703.63;4976188;28;20238;-91
2022/05/30 01:53:51;;;;;;;1.20;0.90;;;;;;;19.63;42.80;92699.59;4977194;28;20047;-91
2022/05/30 01:56:17;;;;;;;1.50;1.05;;;;;;;19.63;42.90;92696.84;4974414;28;20507;-92
2022/05/30 01:58:43;;;;;;;1.35;1.05;;;;;;;19.62;42.65;92700.13;4977302;28;20049;-92
2022/05/30 02:01:22;;;;;;;1.10;0.93;;;;;;;19.64;42.75;92703.09;4971382;28;20048;-92
2022/05/30 02:03:48;;;;;;;1.27;1.10;;;;;;;19.62;42.72;92694.66;4993525;28;20029;-92
2022/05/30 02:06:14;;;;;;;1.35;0.90;;;;;;;19.61;42.65;92691.19;4976710;28;20037;-93
2022/05/30 02:08:40;;;;;;;1.65;1.10;;;;;;;19.60;42.82;92695.19;4977168;28;20041;-92
2022/05/30 02:11:08;;;;;;;1.52;1.20;;;;;;;19.59;43.02;92690.22;4993431;28;20038;-92
2022/05/30 02:13:34;;;;;;;1.33;1.00;;;;;;;19.61;42.86;92695.91;4958914;28;20129;-92
2022/05/30 02:18:46;;;;;;;1.30;1.20;;;;;;;19.61;42.72;92690.44;4969923;28;20328;-92
2022/05/30 02:21:11;;;;;;;0.90;0.80;;;;;;;19.61;42.58;92685.69;4992459;28;20025;-92
2022/05/30 02:23:37;;;;;;;0.90;0.90;;;;;;;19.60;42.54;92694.44;4960936;28;20033;-91
2022/05/30 02:26:02;;;;;;;1.10;1.00;;;;;;;19.59;42.82;92696.47;4968667;28;20529;-90
2022/05/30 02:28:28;;;;;;;1.50;1.25;;;;;;;19.60;42.61;92697.94;4973664;28;20041;-91
2022/05/30 02:30:53;;;;;;;1.73;1.13;;;;;;;19.60;42.52;92700.66;4973716;28;20045;-92
2022/05/30 02:38:48;;;;;;;1.00;0.88;;;;;;;19.59;42.92;92693.72;4948008;28;20084;-92
2022/05/30 02:41:14;;;;;;;1.35;0.98;;;;;;;19.60;42.73;92691.72;4973178;28;20133;-92
2022/05/30 02:43:39;;;;;;;1.00;0.82;;;;;;;19.58;42.56;92692.25;4957570;28;20038;-92
2022/05/30 02:46:05;;;;;;;1.20;0.90;;;;;;;19.59;42.73;92693.72;4972979;28;20119;-92
2022/05/30 02:48:30;;;;;;;2.33;1.05;;;;;;;19.59;42.43;92693.72;4968869;28;20047;-91
2022/05/30 02:50:56;;;;;;;1.05;0.90;;;;;;;19.58;42.54;92705.22;4973388;28;20073;-92
2022/05/30 02:53:21;;;;;;;1.13;1.00;;;;;;;19.59;42.51;92695.72;4972810;28;20052;-92
2022/05/30 02:55:48;;;;;;;1.55;1.20;;;;;;;19.58;42.60;92692.25;4954503;28;20432;-92
2022/05/30 02:58:13;;;;;;;0.98;0.80;;;;;;;19.58;42.83;92699.72;4951767;28;20440;-92
2022/05/30 03:00:39;;;;;;;1.20;1.10;;;;;;;19.57;42.69;92684.56;4972260;28;20045;-92
2022/05/30 03:03:05;;;;;;;1.52;0.93;;;;;;;19.56;42.60;92697.53;4972346;28;20588;-91
2022/05/30 03:05:30;;;;;;;1.15;0.95;;;;;;;19.56;42.93;92692.03;4992047;28;20034;-91
2022/05/30 03:07:56;;;;;;;0.80;0.80;;;;;;;19.57;42.67;92696.25;4976954;28;20567;-91
2022/05/30 03:10:22;;;;;;;1.27;1.02;;;;;;;19.57;42.55;92699.00;4970976;28;20991;-92
2022/05/30 03:12:47;;;;;;;1.25;0.98;;;;;;;19.55;42.65;92698.78;4974996;28;20385;-91
2022/05/30 03:15:12;;;;;;;1.05;0.90;;;;;;;19.57;42.61;92699.00;4976059;28;20033;-92
2022/05/30 03:17:38;;;;;;;1.05;0.88;;;;;;;19.56;42.68;92696.78;4992746;28;20034;-92
2022/05/30 03:20:04;;;;;;;1.00;0.80;;;;;;;19.56;42.35;92696.78;4956918;28;20042;-92
2022/05/30 03:22:29;;;;;;;1.10;1.00;;;;;;;19.57;42.51;92698.25;4983951;28;20041;-92
2022/05/30 03:24:55;;;;;;;1.00;0.90;;;;;;;19.55;42.76;92704.28;5011157;28;20038;-92
2022/05/30 03:27:21;;;;;;;1.13;1.00;;;;;;;19.55;42.72;92700.78;4995188;28;20045;-92
2022/05/30 03:29:48;;;;;;;1.15;1.05;;;;;;;19.55;42.74;92698.78;4995897;28;20064;-92
2022/05/30 03:32:13;;;;;;;1.38;1.15;;;;;;;19.57;42.62;92693.50;5028359;28;20725;-92
2022/05/30 03:34:39;;;;;;;1.58;1.42;;;;;;;19.56;42.57;92697.53;4995539;28;20482;-92
2022/05/30 03:37:05;;;;;;;1.63;1.10;;;;;;;19.57;42.58;92699.00;5004759;28;20025;-92
2022/05/30 03:39:30;;;;;;;1.05;0.73;;;;;;;19.57;42.75;92701.00;5002378;28;20405;-92
2022/05/30 03:41:56;;;;;;;4.93;1.20;;;;;;;19.58;42.76;92702.47;4995849;28;20029;-91
2022/05/30 03:44:22;;;;;;;1.23;0.98;;;;;;;19.56;42.79;92700.25;4995772;28;20038;-90
2022/05/30 03:46:47;;;;;;;3.78;2.70;;;;;;;19.59;42.24;92703.94;4966933;28;20042;-91
2022/05/30 03:49:12;;;;;;;8.30;4.18;;;;;;;19.61;42.15;92696.66;4954432;28;20156;-91
2022/05/30 03:51:38;;;;;;;1.73;1.42;;;;;;;19.66;42.62;92706.03;4950384;28;20046;-93
2022/05/30 03:54:04;;;;;;;5.53;2.22;;;;;;;19.74;42.50;92704.06;4961440;28;20587;-91
2022/05/30 03:56:29;;;;;;;6.47;1.85;;;;;;;19.75;42.35;92705.53;4940167;28;20458;-92
2022/05/30 03:58:58;;;;;;;1.90;1.30;;;;;;;19.82;42.10;92697.38;4937198;28;20067;-92
2022/05/30 04:01:24;;;;;;;3.90;1.30;;;;;;;19.80;42.13;92702.66;4945856;28;20182;-91
2022/05/30 04:03:50;;;;;;;3.45;1.20;;;;;;;19.82;42.36;92702.13;4951690;28;20046;-93
2022/05/30 04:06:15;;;;;;;3.65;1.92;;;;;;;19.82;41.93;92702.84;4956751;28;20039;-92
2022/05/30 04:08:41;;;;;;;9.82;1.98;;;;;;;19.82;41.97;92708.34;4950016;28;20041;-91
2022/05/30 04:11:06;;;;;;;5.82;1.88;;;;;;;19.83;41.78;92723.53;4958609;28;20042;-91
2022/05/30 04:13:32;;;;;;;4.30;2.13;;;;;;;19.89;41.14;92717.91;4945576;28;20073;-91
2022/05/30 04:16:06;;;;;;;6.15;3.17;;;;;;;19.84;40.62;92718.78;4972607;28;20047;-92
2022/05/30 04:18:32;;;;;;;310.23;276.88;;;;;;;19.83;40.37;92722.78;4975693;28;20129;-94
2022/05/30 04:20:59;;;;;;;417.25;300.08;;;;;;;19.75;40.25;92727.47;4981890;28;20038;-92
2022/05/30 04:23:24;;;;;;;48.65;31.85;;;;;;;19.79;39.64;92725.13;4983841;28;20133;-92
2022/05/30 04:25:52;;;;;;;36.00;18.15;;;;;;;19.82;39.57;92724.81;4955776;28;20077;-91
2022/05/30 04:28:21;;;;;;;22.23;10.02;;;;;;;19.77;39.48;92733.16;4998699;28;20045;-91
2022/05/30 04:30:51;;;;;;;30.30;9.10;;;;;;;19.75;39.76;92744.66;4986120;28;20041;-92
2022/05/30 04:33:17;;;;;;;17.33;10.15;;;;;;;19.73;39.21;92740.97;4980072;28;20673;-91
2022/05/30 04:35:43;;;;;;;57.80;43.65;;;;;;;19.72;39.54;92743.00;4977429;28;20036;-93
2022/05/30 04:38:10;;;;;;;147.30;91.72;;;;;;;19.71;39.63;92743.53;4948154;28;20112;-91
2022/05/30 04:40:36;;;;;;;121.32;87.43;;;;;;;19.74;39.55;92748.69;4935798;28;20054;-91
2022/05/30 04:43:01;;;;;;;52.65;20.15;;;;;;;19.78;40.27;92751.81;4946055;28;20097;-93
2022/05/30 04:45:30;;;;;;;26.65;10.70;;;;;;;19.78;40.20;92756.56;4972250;28;20051;-93
2022/05/30 04:47:55;;;;;;;36.00;9.05;;;;;;;19.83;40.43;92761.94;4927219;28;20049;-90
2022/05/30 04:50:21;;;;;;;24.58;6.88;;;;;;;19.79;40.70;92758.78;4928524;28;20043;-89
2022/05/30 04:52:46;;;;;;;31.70;9.60;;;;;;;19.81;40.56;92755.50;4946500;28;20111;-91
2022/05/30 04:55:15;;;;;;;20.30;8.88;;;;;;;19.81;40.84;92767.22;4923688;28;20035;-91
2022/05/30 04:57:43;;;;;;;38.08;14.85;;;;;;;19.68;39.61;92764.53;4911126;29;20747;-90
2022/05/30 05:00:11;;;;;;;74.65;30.15;;;;;;;19.59;40.00;92764.25;4931934;28;20050;-90
2022/05/30 05:02:37;;;;;;;58.22;20.00;;;;;;;19.59;39.33;92767.75;4955445;28;20043;-92
2022/05/30 05:05:06;;;;;;;78.03;21.23;;;;;;;19.44;39.12;92767.56;4923765;28;20039;-90
2022/05/30 05:07:40;;;;;;;90.70;21.75;;;;;;;19.36;39.26;92766.75;4914153;29;20051;-90
2022/05/30 05:10:26;;;;;;;70.13;19.73;;;;;;;19.31;38.90;92765.59;4937504;28;20078;-89
2022/05/30 05:12:52;;;;;;;91.20;19.33;;;;;;;19.16;38.87;92763.44;4934558;28;20047;-88
2022/05/30 05:15:17;;;;;;;59.40;14.52;;;;;;;19.14;38.73;92773.44;4898142;29;20043;-90
2022/05/30 05:17:43;;;;;;;40.85;11.65;;;;;;;19.12;39.13;92767.75;4928423;29;20093;-91
2022/05/30 05:20:09;;;;;;;30.00;10.30;;;;;;;19.07;39.10;92766.59;4913817;28;20109;-86
2022/05/30 05:22:34;;;;;;;25.23;9.13;;;;;;;19.08;38.82;92770.81;4927551;28;20072;-88
2022/05/30 05:25:00;;;;;;;38.67;17.52;;;;;;;19.07;38.62;92771.34;4932609;28;20047;-89
2022/05/30 05:27:25;;;;;;;43.47;22.92;;;;;;;19.00;38.36;92774.75;4947461;28;20039;-88
2022/05/30 05:29:54;;;;;;;76.60;25.88;;;;;;;19.14;38.78;92776.94;4917117;28;20455;-89
2022/05/30 05:32:20;;;;;;;142.75;37.83;;;;;;;18.98;39.36;92780.75;4934412;28;20533;-89
2022/05/30 05:34:46;;;;;;;143.43;38.05;;;;;;;19.02;39.45;92772.22;4967333;28;20047;-89
2022/05/30 05:37:12;;;;;;;93.60;24.58;;;;;;;18.93;39.66;92776.13;4964431;28;20045;-89
2022/05/30 05:39:37;;;;;;;73.70;21.70;;;;;;;18.95;39.38;92778.34;4990733;28;20041;-89
2022/05/30 05:42:03;;;;;;;59.72;15.63;;;;;;;18.99;39.44;92771.28;4978546;28;20049;-89
2022/05/30 05:44:29;;;;;;;40.22;11.40;;;;;;;18.94;39.38;92774.88;4976471;28;20042;-89
2022/05/30 05:46:58;;;;;;;39.47;9.90;;;;;;;18.87;39.12;92777.50;4990482;28;20052;-89
2022/05/30 05:49:23;;;;;;;32.65;9.13;;;;;;;18.86;38.95;92779.50;4989555;28;20038;-87
2022/05/30 05:51:54;;;;;;;25.45;7.13;;;;;;;19.00;38.78;92782.97;5007004;28;20432;-88
2022/05/30 05:54:23;;;;;;;24.95;8.65;;;;;;;18.93;39.17;92780.88;4971101;28;20045;-87
2022/05/30 05:56:49;;;;;;;21.23;7.75;;;;;;;19.01;38.94;92781.72;4976454;28;20594;-91
2022/05/30 05:59:14;;;;;;;33.00;10.45;;;;;;;19.08;38.83;92773.56;4989642;28;20085;-90
2022/05/30 06:01:40;;;;;;;36.17;14.43;;;;;;;19.14;39.06;92776.94;4974520;28;20080;-91
2022/05/30 06:04:06;;;;;;;46.70;17.52;;;;;;;19.21;38.76;92774.81;4970321;28;20112;-87
2022/05/30 06:06:32;;;;;;;59.90;17.65;;;;;;;19.28;39.05;92774.88;4962812;28;20060;-90
2022/05/30 06:08:59;;;;;;;65.32;18.50;;;;;;;19.33;39.46;92782.25;5000678;28;20038;-87
2022/05/30 06:11:25;;;;;;;67.75;22.13;;;;;;;19.46;38.76;92776.75;4953440;28;20508;-87
2022/05/30 06:13:50;;;;;;;52.50;23.77;;;;;;;19.57;39.09;92775.03;4996839;28;20033;-88
2022/05/30 06:16:17;;;;;;;62.35;24.02;;;;;;;19.55;39.25;92781.03;4995033;28;20057;-86
2022/05/30 06:18:42;;;;;;;67.45;36.70;;;;;;;19.68;39.08;92781.00;4995452;28;20895;-88
2022/05/30 06:21:08;;;;;;;49.08;23.35;;;;;;;19.75;38.90;92785.78;4987878;28;20041;-89
2022/05/30 06:23:33;;;;;;;49.17;22.45;;;;;;;19.81;38.58;92780.94;4965606;28;20038;-90
2022/05/30 06:26:10;;;;;;;55.10;22.05;;;;;;;19.83;38.88;92774.91;4969739;28;20037;-90
2022/05/30 06:28:36;;;;;;;44.47;24.15;;;;;;;19.78;38.85;92773.75;4989649;28;20108;-90
2022/05/30 06:31:12;;;;;;;51.22;23.08;;;;;;;19.78;39.09;92773.03;4954682;28;20042;-90
2022/05/30 06:33:38;;;;;;;61.42;28.88;;;;;;;19.74;39.30;92773.34;4991195;28;20043;-90
2022/05/30 06:36:06;;;;;;;63.80;25.58;;;;;;;19.77;39.19;92772.28;4977497;28;20038;-91
2022/05/30 06:38:31;;;;;;;57.30;25.48;;;;;;;19.77;38.95;92772.28;4972855;28;20692;-90
2022/05/30 06:40:57;;;;;;;72.10;30.23;;;;;;;19.82;39.26;92765.94;4994633;28;20129;-88
2022/05/30 06:43:22;;;;;;;129.95;43.08;;;;;;;19.80;39.20;92768.47;4976070;28;20054;-87
2022/05/30 06:45:48;;;;;;;86.63;35.22;;;;;;;19.78;39.26;92762.78;4972468;28;20046;-90
2022/05/30 06:48:14;;;;;;;125.55;44.20;;;;;;;19.81;39.38;92766.47;4973025;28;20141;-89
2022/05/30 06:50:40;;;;;;;163.60;67.20;;;;;;;19.81;39.44;92767.22;4993369;28;20046;-90
2022/05/30 06:53:06;;;;;;;151.05;53.75;;;;;;;19.86;39.29;92768.34;4987452;28;20124;-89
2022/05/30 06:55:32;;;;;;;219.23;92.90;;;;;;;19.92;39.36;92771.69;4999810;28;20468;-91
2022/05/30 06:58:12;;;;;;;219.35;107.53;;;;;;;19.95;39.18;92770.59;5013311;28;20038;-92
2022/05/30 07:00:38;;;;;;;254.57;124.35;;;;;;;19.97;39.42;92778.31;4995158;28;20042;-92
2022/05/30 07:03:04;;;;;;;120.20;58.13;;;;;;;19.85;38.01;92784.06;4995789;28;20042;-91
2022/05/30 07:05:29;;;;;;;134.60;59.78;;;;;;;19.72;37.82;92775.16;4976726;28;20039;-91
2022/05/30 07:07:56;;;;;;;203.38;67.93;;;;;;;19.66;37.65;92769.09;4961790;28;20033;-89
2022/05/30 07:10:23;;;;;;;158.00;56.40;;;;;;;19.68;37.42;92777.53;5000454;28;20183;-88
2022/05/30 07:12:48;;;;;;;117.88;45.85;;;;;;;19.65;37.01;92775.84;4981197;28;20041;-90
2022/05/30 07:15:14;;;;;;;149.32;57.33;;;;;;;19.64;37.20;92779.84;4978531;28;20050;-89
2022/05/30 07:17:39;;;;;;;153.48;54.72;;;;;;;19.61;36.71;92775.44;4979049;28;20045;-88
2022/05/30 07:20:05;;;;;;;96.38;43.70;;;;;;;19.61;36.94;92775.44;4988004;28;20137;-88
2022/05/30 07:22:31;;;;;;;117.10;52.90;;;;;;;19.55;36.55;92785.78;4962316;28;20076;-88
2022/05/30 07:24:56;;;;;;;108.07;51.95;;;;;;;19.60;36.69;92788.41;4978713;28;20650;-87
2022/05/30 07:27:23;;;;;;;154.65;61.65;;;;;;;19.66;36.97;92782.78;4981342;28;20394;-90
2022/05/30 07:29:49;;;;;;;212.23;79.43;;;;;;;19.68;36.59;92781.00;4962676;28;20045;-91
2022/05/30 07:32:15;;;;;;;177.65;74.65;;;;;;;19.66;36.38;92775.31;4962559;28;20450;-87
2022/05/30 07:34:40;;;;;;;178.45;79.53;;;;;;;19.62;36.01;92772.16;4961548;28;20070;-89
2022/05/30 07:37:06;;;;;;;151.32;64.25;;;;;;;19.65;35.44;92773.09;4979217;28;20042;-89
2022/05/30 07:39:35;;;;;;;156.65;69.57;;;;;;;19.66;35.62;92769.09;4987051;28;20524;-88
2022/05/30 07:42:01;;;;;;;134.88;49.55;;;;;;;19.66;35.36;92764.34;4978289;28;20035;-88
2022/05/30 07:44:27;;;;;;;98.13;41.17;;;;;;;19.55;34.46;92772.06;4985994;28;20081;-87
2022/05/30 07:46:54;;;;;;;99.80;35.88;;;;;;;19.49;34.73;92774.91;4975179;28;20043;-87
2022/05/30 07:49:19;;;;;;;75.25;29.70;;;;;;;19.49;34.51;92775.66;4979130;28;20046;-88
2022/05/30 07:51:46;;;;;;;69.03;27.75;;;;;;;19.43;34.66;92772.31;4978251;28;20054;-89
2022/05/30 07:54:11;;;;;;;58.20;22.27;;;;;;;19.34;34.64;92766.53;4960477;28;20584;-88
2022/05/30 07:56:37;;;;;;;48.17;24.02;;;;;;;19.34;34.95;92769.28;4972801;28;20695;-89
2022/05/30 07:59:02;;;;;;;77.00;28.40;;;;;;;19.41;34.92;92772.09;4983862;28;20038;-89
2022/05/30 08:01:28;;;;;;;102.63;33.80;;;;;;;19.44;35.38;92765.56;4957515;28;20090;-89
2022/05/30 08:03:53;;;;;;;103.93;36.15;;;;;;;19.48;35.06;92763.22;4955334;28;20053;-90
2022/05/30 08:06:25;;;;;;;109.45;48.00;;;;;;;19.58;35.54;92765.53;4964250;28;20133;-90
2022/05/30 08:08:56;;;;;;;145.35;62.17;;;;;;;19.56;35.66;92774.28;4961077;28;20042;-90
2022/05/30 08:11:23;;;;;;;192.65;80.55;;;;;;;19.64;35.84;92774.38;4959119;28;20035;-89
2022/05/30 08:13:49;;;;;;;217.93;84.65;;;;;;;19.65;36.01;92776.56;4976716;28;20027;-90
2022/05/30 08:16:21;;;;;;;213.57;93.93;;;;;;;19.66;36.08;92760.88;4972501;28;20133;-89
2022/05/30 08:18:46;;;;;;;236.93;107.85;;;;;;;19.72;36.36;92767.66;4954697;28;20394;-88
2022/05/30 08:21:14;;;;;;;245.15;109.35;;;;;;;19.74;36.47;92769.88;4973507;28;20749;-90
2022/05/30 08:23:39;;;;;;;237.90;116.32;;;;;;;19.77;36.57;92766.81;4973889;28;20038;-90
2022/05/30 08:26:05;;;;;;;222.88;111.72;;;;;;;19.80;36.46;92763.00;4981107;28;20034;-91
2022/05/30 08:28:31;;;;;;;252.93;121.65;;;;;;;19.77;36.80;92780.53;4994558;28;20044;-86
2022/05/30 08:30:57;;;;;;;247.63;125.10;;;;;;;19.83;36.78;92780.38;4976239;28;20038;-89
2022/05/30 08:33:22;;;;;;;264.30;125.65;;;;;;;19.80;36.52;92778.72;4989957;28;20053;-89
2022/05/30 08:35:58;;;;;;;288.08;125.75;;;;;;;19.84;36.83;92768.16;4960669;28;20026;-90
2022/05/30 08:38:24;;;;;;;270.60;126.68;;;;;;;19.81;36.75;92769.22;4980823;28;20034;-89
2022/05/30 08:43:37;;;;;;;262.85;131.65;;;;;;;19.83;36.75;92778.38;5000772;28;20085;-91
2022/05/30 08:46:08;;;;;;;272.05;126.03;;;;;;;19.87;36.87;92780.06;4977389;28;20069;-91
2022/05/30 08:48:42;;;;;;;254.82;126.63;;;;;;;19.90;37.06;92781.75;4990702;28;20038;-89
2022/05/30 08:51:16;;;;;;;262.63;122.85;;;;;;;19.90;37.15;92777.00;4975823;28;20038;-86
2022/05/30 08:53:42;;;;;;;254.15;122.38;;;;;;;19.92;36.95;92788.13;4997823;28;20046;-88
2022/05/30 08:56:28;;;;;;;258.02;119.72;;;;;;;19.92;37.10;92782.66;4997297;28;20111;-89
2022/05/30 08:59:16;;;;;;;272.40;124.45;;;;;;;19.91;37.13;92785.94;4998081;28;20049;-87
2022/05/30 09:01:47;;;;;;;269.65;120.55;;;;;;;19.93;37.25;92786.88;5001557;28;20091;-87
2022/05/30 09:04:26;;;;;;;251.15;117.38;;;;;;;19.95;37.19;92789.81;4969874;28;20046;-88
2022/05/30 09:06:53;;;;;;;268.05;124.20;;;;;;;19.98;37.19;92779.78;4991620;28;20445;-90
2022/05/30 09:09:27;;;;;;;155.27;75.72;;;;;;;19.91;36.47;92794.91;4995959;28;20046;-89
2022/05/30 09:11:57;;;;;;;86.57;41.72;;;;;;;19.84;35.79;92785.34;5012871;28;20054;-86
2022/05/30 09:14:33;;;;;;;99.60;39.15;;;;;;;19.80;36.16;92790.41;5001242;28;20046;-88
2022/05/30 09:16:59;;;;;;;72.32;32.40;;;;;;;19.74;35.96;92784.31;4998302;28;20036;-88
2022/05/30 09:19:26;;;;;;;52.08;26.65;;;;;;;19.71;36.16;92792.88;4977610;28;20400;-87
2022/05/30 09:21:54;;;;;;;63.08;30.17;;;;;;;19.62;35.88;92788.59;4996710;28;20113;-87
2022/05/30 09:24:20;;;;;;;304.52;71.45;;;;;;;19.68;35.89;92789.22;4990969;28;20090;-88
2022/05/30 09:26:45;;;;;;;68.43;33.03;;;;;;;19.58;36.32;92790.94;4993260;28;20042;-87
2022/05/30 09:29:22;;;;;;;63.60;28.75;;;;;;;19.65;37.41;92795.03;5019282;28;20037;-89
2022/05/30 09:32:10;;;;;;;101.22;35.40;;;;;;;19.69;37.38;92790.69;4982261;28;20050;-86
2022/05/30 09:34:45;;;;;;;99.43;41.10;;;;;;;19.60;37.65;92790.41;4999742;28;20041;-86
2022/05/30 09:37:29;;;;;;;121.35;42.58;;;;;;;19.57;37.62;92797.69;4955926;28;20044;-84
2022/05/30 09:39:54;;;;;;;201.35;65.82;;;;;;;19.63;37.82;92795.56;4970584;28;20038;-86
2022/05/30 09:42:37;;;;;;;150.75;66.53;;;;;;;19.56;38.19;92788.00;4997130;28;20030;-86
2022/05/30 09:45:25;;;;;;;126.43;60.58;;;;;;;19.45;38.85;92793.72;4989540;28;20050;-89
2022/05/30 09:48:03;;;;;;;123.53;46.85;;;;;;;19.46;38.59;92792.44;5019537;28;20042;-88
2022/05/30 09:50:29;;;;;;;126.05;43.40;;;;;;;19.42;38.86;92800.25;5006519;28;20057;-89
2022/05/30 09:52:54;;;;;;;114.53;35.83;;;;;;;19.43;39.17;92799.00;4974517;28;20302;-91
2022/05/30 09:55:35;;;;;;;152.63;41.15;;;;;;;19.47;38.95;92802.16;4975605;28;20096;-90
2022/05/30 09:58:00;;;;;;;149.18;47.63;;;;;;;19.47;38.95;92802.16;4973841;28;20574;-89
2022/05/30 10:00:48;;;;;;;226.05;60.55;;;;;;;19.52;39.13;92796.53;4973482;28;20041;-87
2022/05/30 10:03:33;;;;;;;194.57;53.95;;;;;;;19.56;39.26;92798.97;4970772;28;20219;-87
2022/05/30 10:06:18;;;;;;;150.07;46.63;;;;;;;19.56;39.37;92796.22;5004526;28;20585;-88
2022/05/30 10:08:44;;;;;;;178.75;45.83;;;;;;;19.56;38.97;92790.72;4990269;28;20364;-87
2022/05/30 10:11:09;;;;;;;171.25;40.08;;;;;;;19.64;38.51;92791.56;5015562;28;20779;-89
2022/05/30 10:13:38;;;;;;;151.15;39.08;;;;;;;19.54;38.71;92804.25;4977554;28;20030;-88
2022/05/30 10:16:08;;;;;;;133.02;37.13;;;;;;;19.58;38.60;92799.16;4956448;28;20029;-87
2022/05/30 10:18:35;;;;;;;153.60;48.85;;;;;;;19.59;38.33;92799.91;4988248;28;20117;-87
2022/05/30 10:21:29;;;;;;;134.32;33.50;;;;;;;19.51;38.21;92808.78;4974737;28;20034;-87
2022/05/30 10:30:26;;;;;;;110.25;28.80;;;;;;;19.54;37.61;92806.97;4977194;28;20041;-89
2022/05/30 10:32:52;;;;;;;;;;;;;;;19.57;37.62;92789.47;4958023;28;20038;-88
2022/05/30 10:35:27;;;;;;;78.95;25.88;;;;;;;19.56;37.81;92795.47;4984471;28;19968;-87
2022/05/30 10:38:14;;;;;;;75.70;21.73;;;;;;;19.52;37.47;92793.06;4991314;28;20061;-89
2022/05/30 10:40:54;;;;;;;64.60;20.08;;;;;;;19.46;37.54;92786.97;4993010;28;20047;-87
2022/05/30 10:43:20;;;;;;;;;;;;;;;19.52;37.73;92785.56;4955206;28;20104;-88
2022/05/30 10:45:49;;;;;;;63.15;17.85;;;;;;;19.45;37.30;92780.75;4988856;28;19925;-87
2022/05/30 10:48:24;;;;;;;69.65;20.27;;;;;;;19.39;37.68;92776.66;4978107;28;20121;-88
2022/05/30 10:50:56;;;;;;;98.45;41.63;;;;;;;19.38;37.99;92788.88;4975144;28;20049;-87
2022/05/30 10:53:32;;;;;;;69.85;24.40;;;;;;;19.47;37.56;92772.00;4972071;28;20061;-88
2022/05/30 10:55:59;;;;;;;74.40;22.38;;;;;;;19.53;37.73;92789.06;4969078;28;20569;-88
2022/05/30 10:58:32;;;;;;;59.08;24.17;;;;;;;19.55;37.66;92783.03;4965060;28;20054;-87
2022/05/30 11:01:09;;;;;;;111.18;40.70;;;;;;;19.55;37.77;92792.00;4967190;28;20405;-90
2022/05/30 11:03:49;;;;;;;152.65;55.67;;;;;;;19.65;38.04;92793.03;4985406;28;20039;-88
2022/05/30 11:06:23;;;;;;;198.23;79.33;;;;;;;19.69;38.05;92792.69;4969420;28;20452;-86
2022/05/30 11:09:04;;;;;;;187.40;82.03;;;;;;;19.73;37.89;92782.84;4951495;28;20043;-88
2022/05/30 11:11:32;;;;;;;;;;;;;;;19.78;37.82;92787.47;4981809;28;20133;-88
2022/05/30 11:14:03;;;;;;;220.57;85.90;;;;;;;19.79;38.03;92788.94;4968030;28;19949;-86
2022/05/30 11:16:40;;;;;;;227.38;82.72;;;;;;;19.79;37.99;92793.69;4958352;28;20035;-86
2022/05/30 11:19:11;;;;;;;187.73;83.70;;;;;;;19.83;38.08;92789.34;4969253;28;20121;-87
2022/05/30 11:22:02;;;;;;;216.07;86.20;;;;;;;19.83;38.32;92786.63;4973403;28;20038;-88
2022/05/30 11:24:28;;;;;;;197.45;83.32;;;;;;;19.85;37.97;92789.56;4972087;28;20053;-88
2022/05/30 11:27:23;;;;;;;226.50;90.40;;;;;;;19.88;38.15;92785.00;4956293;28;20565;-89
2022/05/30 11:30:13;;;;;;;224.20;93.80;;;;;;;19.84;38.39;92788.09;4996991;28;20124;-89
2022/05/30 11:32:54;;;;;;;230.57;95.97;;;;;;;19.88;38.14;92789.75;5020600;28;20052;-87
2022/05/30 11:35:39;;;;;;;;;;;;;;;19.90;38.06;92782.47;4992005;28;20042;-89
2022/05/30 11:38:14;;;;;;;230.30;95.53;;;;;;;19.90;38.20;92787.22;4995148;28;19952;-89
2022/05/30 11:41:02;;;;;;;245.88;96.75;;;;;;;19.92;38.25;92787.44;4992890;28;20067;-90
2022/05/30 11:43:44;;;;;;;219.50;92.97;;;;;;;19.94;38.31;92788.34;4977608;28;20050;-90
2022/05/30 11:46:34;;;;;;;219.38;93.15;;;;;;;19.91;38.27;92780.47;4993015;28;20049;-89
2022/05/30 11:49:06;;;;;;;284.63;119.97;;;;;;;19.93;38.50;92780.63;5002807;28;20054;-92
2022/05/30 11:51:48;;;;;;;264.15;117.53;;;;;;;19.96;38.15;92774.09;4996465;28;20069;-94
2022/05/30 11:54:14;;;;;;;307.52;137.23;;;;;;;19.97;38.11;92781.78;5012830;28;20034;-92